sensor_id;sensor_type;location;lat;lon;timestamp;pressure;altitude;pressure_sealevel;temperature;humidity
44697;BME280;57264;47.480;19.354;2023-05-10T00:01:46;99415.47;;;9.48;75.71
44697;BME280;57264;47.480;19.354;2023-05-10T00:04:11;99417.09;;;9.42;76.17
44697;BME280;57264;47.480;19.354;2023-05-10T00:06:37;99412.22;;;9.39;76.42
44697;BME280;57264;47.480;19.354;2023-05-10T00:09:03;99416.22;;;9.35;76.69
44697;BME280;57264;47.480;19.354;2023-05-10T00:11:28;99415.44;;;9.34;76.97
44697;BME280;57264;47.480;19.354;2023-05-10T00:13:54;99415.84;;;9.38;77.00
44697;BME280;57264;47.480;19.354;2023-05-10T00:16:20;99418.91;;;9.42;76.92
44697;BME280;57264;47.480;19.354;2023-05-10T00:18:45;99408.66;;;9.47;77.25
44697;BME280;57264;47.480;19.354;2023-05-10T00:21:11;99410.28;;;9.54;76.85
44697;BME280;57264;47.480;19.354;2023-05-10T00:23:36;99410.50;;;9.59;76.47
44697;BME280;57264;47.480;19.354;2023-05-10T00:26:02;99409.56;;;9.67;76.48
44697;BME280;57264;47.480;19.354;2023-05-10T00:28:28;99406.94;;;9.73;76.11
44697;BME280;57264;47.480;19.354;2023-05-10T00:30:55;99399.09;;;9.80;76.25
44697;BME280;57264;47.480;19.354;2023-05-10T00:33:22;99403.94;;;9.83;75.87
44697;BME280;57264;47.480;19.354;2023-05-10T00:35:48;99406.38;;;9.91;75.68
44697;BME280;57264;47.480;19.354;2023-05-10T00:38:14;99402.38;;;9.95;75.68
44697;BME280;57264;47.480;19.354;2023-05-10T00:40:39;99401.78;;;10.00;74.83
44697;BME280;57264;47.480;19.354;2023-05-10T00:43:05;99401.00;;;10.06;74.47
44697;BME280;57264;47.480;19.354;2023-05-10T00:45:34;99411.94;;;10.16;74.50
44697;BME280;57264;47.480;19.354;2023-05-10T00:48:02;99400.81;;;10.14;73.49
44697;BME280;57264;47.480;19.354;2023-05-10T00:50:30;99398.81;;;10.16;73.78
44697;BME280;57264;47.480;19.354;2023-05-10T00:52:57;99396.41;;;10.21;73.41
44697;BME280;57264;47.480;19.354;2023-05-10T00:55:24;99389.78;;;10.25;73.44
44697;BME280;57264;47.480;19.354;2023-05-10T00:57:50;99398.44;;;10.25;73.20
44697;BME280;57264;47.480;19.354;2023-05-10T01:00:16;99389.59;;;10.26;73.38
44697;BME280;57264;47.480;19.354;2023-05-10T01:02:44;99389.78;;;10.31;73.71
44697;BME280;57264;47.480;19.354;2023-05-10T01:05:11;99392.00;;;10.35;72.99
44697;BME280;57264;47.480;19.354;2023-05-10T01:07:37;99388.75;;;10.39;72.89
44697;BME280;57264;47.480;19.354;2023-05-10T01:10:02;99391.19;;;10.41;73.38
44697;BME280;57264;47.480;19.354;2023-05-10T01:12:28;99388.56;;;10.41;72.88
44697;BME280;57264;47.480;19.354;2023-05-10T01:14:54;99383.50;;;10.39;72.82
44697;BME280;57264;47.480;19.354;2023-05-10T01:17:21;99390.59;;;10.39;73.40
44697;BME280;57264;47.480;19.354;2023-05-10T01:19:47;99397.25;;;10.41;72.67
44697;BME280;57264;47.480;19.354;2023-05-10T01:30:35;99386.75;;;10.41;73.34
44697;BME280;57264;47.480;19.354;2023-05-10T01:39:06;99388.19;;;10.30;77.30
44697;BME280;57264;47.480;19.354;2023-05-10T01:41:51;99386.34;;;10.18;78.46
44697;BME280;57264;47.480;19.354;2023-05-10T01:44:28;99387.09;;;10.12;79.12
44697;BME280;57264;47.480;19.354;2023-05-10T01:47:03;99381.84;;;10.05;79.50
44697;BME280;57264;47.480;19.354;2023-05-10T01:49:33;99375.56;;;10.00;79.88
44697;BME280;57264;47.480;19.354;2023-05-10T01:52:14;99378.78;;;9.95;80.10
44697;BME280;57264;47.480;19.354;2023-05-10T01:54:50;99373.13;;;9.92;80.20
44697;BME280;57264;47.480;19.354;2023-05-10T01:57:20;99379.38;;;9.91;80.48
44697;BME280;57264;47.480;19.354;2023-05-10T01:59:50;99378.59;;;9.97;80.79
44697;BME280;57264;47.480;19.354;2023-05-10T02:02:17;99376.78;;;9.97;80.46
44697;BME280;57264;47.480;19.354;2023-05-10T02:04:44;99372.75;;;9.95;80.82
44697;BME280;57264;47.480;19.354;2023-05-10T02:07:10;99371.69;;;9.89;80.43
44697;BME280;57264;47.480;19.354;2023-05-10T02:09:37;99366.88;;;9.99;81.30
44697;BME280;57264;47.480;19.354;2023-05-10T02:12:05;99369.09;;;9.96;81.95
44697;BME280;57264;47.480;19.354;2023-05-10T02:14:35;99360.81;;;9.85;82.72
44697;BME280;57264;47.480;19.354;2023-05-10T02:17:04;99358.78;;;9.81;83.33
44697;BME280;57264;47.480;19.354;2023-05-10T02:19:32;99357.56;;;9.83;82.70
44697;BME280;57264;47.480;19.354;2023-05-10T02:22:00;99361.00;;;9.84;82.05
44697;BME280;57264;47.480;19.354;2023-05-10T02:24:26;99353.75;;;9.86;81.53
44697;BME280;57264;47.480;19.354;2023-05-10T02:26:54;99357.38;;;9.85;81.68
44697;BME280;57264;47.480;19.354;2023-05-10T02:29:27;99359.38;;;9.76;82.57
44697;BME280;57264;47.480;19.354;2023-05-10T02:31:54;99355.53;;;9.79;81.67
44697;BME280;57264;47.480;19.354;2023-05-10T02:34:25;99353.53;;;9.74;82.62
44697;BME280;57264;47.480;19.354;2023-05-10T02:36:52;99360.34;;;9.69;82.56
44697;BME280;57264;47.480;19.354;2023-05-10T02:39:21;99356.31;;;9.66;82.04
44697;BME280;57264;47.480;19.354;2023-05-10T02:41:49;99360.13;;;9.64;83.10
44697;BME280;57264;47.480;19.354;2023-05-10T02:44:18;99361.75;;;9.65;82.38
44697;BME280;57264;47.480;19.354;2023-05-10T02:46:46;99359.31;;;9.63;81.06
44697;BME280;57264;47.480;19.354;2023-05-10T02:49:12;99361.72;;;9.58;81.37
44697;BME280;57264;47.480;19.354;2023-05-10T02:51:41;99358.25;;;9.51;81.72
44697;BME280;57264;47.480;19.354;2023-05-10T02:54:19;99362.66;;;9.44;81.73
44697;BME280;57264;47.480;19.354;2023-05-10T02:56:58;99361.00;;;9.30;81.69
44697;BME280;57264;47.480;19.354;2023-05-10T02:59:28;99361.34;;;9.20;81.66
44697;BME280;57264;47.480;19.354;2023-05-10T03:01:54;99363.13;;;9.13;80.86
44697;BME280;57264;47.480;19.354;2023-05-10T03:04:19;99365.25;;;9.03;81.55
44697;BME280;57264;47.480;19.354;2023-05-10T03:06:45;99368.47;;;8.99;81.83
44697;BME280;57264;47.480;19.354;2023-05-10T03:09:12;99367.59;;;8.91;82.09
44697;BME280;57264;47.480;19.354;2023-05-10T03:11:47;99371.66;;;8.94;82.15
44697;BME280;57264;47.480;19.354;2023-05-10T03:25:12;99360.75;;;9.18;82.41
44697;BME280;57264;47.480;19.354;2023-05-10T03:27:43;99369.00;;;9.22;81.67
44697;BME280;57264;47.480;19.354;2023-05-10T03:30:11;99364.78;;;9.21;81.30
44697;BME280;57264;47.480;19.354;2023-05-10T03:32:37;99363.72;;;9.15;81.34
44697;BME280;57264;47.480;19.354;2023-05-10T03:35:09;99358.97;;;9.25;81.20
44697;BME280;57264;47.480;19.354;2023-05-10T03:37:35;99363.38;;;9.25;80.57
44697;BME280;57264;47.480;19.354;2023-05-10T03:40:02;99355.34;;;9.26;80.56
44697;BME280;57264;47.480;19.354;2023-05-10T03:42:27;99355.38;;;9.33;79.80
44697;BME280;57264;47.480;19.354;2023-05-10T03:44:53;99359.81;;;9.39;79.50
44697;BME280;57264;47.480;19.354;2023-05-10T03:47:19;99362.22;;;9.34;79.26
44697;BME280;57264;47.480;19.354;2023-05-10T03:49:45;99359.59;;;9.34;79.39
44697;BME280;57264;47.480;19.354;2023-05-10T03:52:10;99357.41;;;9.37;79.11
44697;BME280;57264;47.480;19.354;2023-05-10T03:54:36;99356.34;;;9.32;79.04
44697;BME280;57264;47.480;19.354;2023-05-10T03:57:01;99354.00;;;9.44;78.17
44697;BME280;57264;47.480;19.354;2023-05-10T03:59:28;99358.88;;;9.47;78.59
44697;BME280;57264;47.480;19.354;2023-05-10T04:01:53;99364.94;;;9.54;78.86
44697;BME280;57264;47.480;19.354;2023-05-10T04:04:19;99365.38;;;9.64;78.63
44697;BME280;57264;47.480;19.354;2023-05-10T04:06:47;99356.75;;;9.76;78.04
44697;BME280;57264;47.480;19.354;2023-05-10T04:09:12;99364.84;;;9.81;77.41
44697;BME280;57264;47.480;19.354;2023-05-10T04:11:38;99367.69;;;10.00;76.78
44697;BME280;57264;47.480;19.354;2023-05-10T04:14:04;99363.88;;;10.09;76.84
44697;BME280;57264;47.480;19.354;2023-05-10T04:16:29;99358.06;;;10.20;75.03
44697;BME280;57264;47.480;19.354;2023-05-10T04:18:55;99358.09;;;10.33;74.90
44697;BME280;57264;47.480;19.354;2023-05-10T04:21:21;99367.19;;;10.37;74.61
44697;BME280;57264;47.480;19.354;2023-05-10T04:23:46;99364.94;;;10.47;73.29
44697;BME280;57264;47.480;19.354;2023-05-10T04:26:12;99365.75;;;10.48;73.33
44697;BME280;57264;47.480;19.354;2023-05-10T04:28:38;99371.22;;;10.53;73.61
44697;BME280;57264;47.480;19.354;2023-05-10T04:31:05;99367.00;;;10.58;73.53
44697;BME280;57264;47.480;19.354;2023-05-10T04:33:31;99359.72;;;10.54;73.55
44697;BME280;57264;47.480;19.354;2023-05-10T04:35:57;99365.75;;;10.67;72.71
44697;BME280;57264;47.480;19.354;2023-05-10T04:38:23;99359.69;;;10.80;72.86
44697;BME280;57264;47.480;19.354;2023-05-10T04:40:48;99362.31;;;10.93;72.61
44697;BME280;57264;47.480;19.354;2023-05-10T04:43:14;99361.47;;;11.19;71.77
44697;BME280;57264;47.480;19.354;2023-05-10T04:45:40;99359.44;;;11.21;71.62
44697;BME280;57264;47.480;19.354;2023-05-10T04:48:05;99355.50;;;11.50;70.66
44697;BME280;57264;47.480;19.354;2023-05-10T04:50:31;99360.66;;;11.76;69.95
44697;BME280;57264;47.480;19.354;2023-05-10T04:52:57;99362.22;;;11.90;68.83
44697;BME280;57264;47.480;19.354;2023-05-10T04:55:23;99357.09;;;12.02;68.08
44697;BME280;57264;47.480;19.354;2023-05-10T04:57:48;99356.81;;;12.41;67.75
44697;BME280;57264;47.480;19.354;2023-05-10T05:00:14;99356.53;;;12.74;66.04
44697;BME280;57264;47.480;19.354;2023-05-10T05:02:43;99348.38;;;13.00;64.56
44697;BME280;57264;47.480;19.354;2023-05-10T05:05:11;99357.22;;;13.49;63.89
44697;BME280;57264;47.480;19.354;2023-05-10T05:07:37;99360.72;;;14.21;60.30
44697;BME280;57264;47.480;19.354;2023-05-10T05:10:07;99352.66;;;15.15;59.48
44697;BME280;57264;47.480;19.354;2023-05-10T05:12:34;99349.19;;;16.06;55.84
44697;BME280;57264;47.480;19.354;2023-05-10T05:14:59;99345.69;;;16.51;54.10
44697;BME280;57264;47.480;19.354;2023-05-10T05:17:25;99345.59;;;16.96;52.35
44697;BME280;57264;47.480;19.354;2023-05-10T05:19:51;99346.53;;;17.45;51.16
44697;BME280;57264;47.480;19.354;2023-05-10T05:22:16;99352.09;;;18.77;48.55
44697;BME280;57264;47.480;19.354;2023-05-10T05:24:42;99348.47;;;18.98;47.60
44697;BME280;57264;47.480;19.354;2023-05-10T05:27:08;99342.75;;;19.84;45.19
44697;BME280;57264;47.480;19.354;2023-05-10T05:29:33;99348.19;;;20.29;43.58
44697;BME280;57264;47.480;19.354;2023-05-10T05:31:59;99343.09;;;20.18;43.93
44697;BME280;57264;47.480;19.354;2023-05-10T05:34:25;99353.69;;;20.02;43.63
44697;BME280;57264;47.480;19.354;2023-05-10T05:36:51;99349.97;;;19.93;44.26
44697;BME280;57264;47.480;19.354;2023-05-10T05:39:17;99363.72;;;19.60;45.84
44697;BME280;57264;47.480;19.354;2023-05-10T05:41:42;99371.53;;;19.25;45.96
44697;BME280;57264;47.480;19.354;2023-05-10T05:44:08;99352.97;;;19.40;46.26
44697;BME280;57264;47.480;19.354;2023-05-10T05:46:34;99371.47;;;18.73;47.32
44697;BME280;57264;47.480;19.354;2023-05-10T05:49:00;99377.34;;;17.94;48.60
44697;BME280;57264;47.480;19.354;2023-05-10T05:51:25;99364.59;;;17.91;49.05
44697;BME280;57264;47.480;19.354;2023-05-10T05:53:51;99376.81;;;18.19;48.25
44697;BME280;57264;47.480;19.354;2023-05-10T05:56:16;99380.53;;;17.48;50.00
44697;BME280;57264;47.480;19.354;2023-05-10T05:58:50;99384.09;;;16.98;51.76
44697;BME280;57264;47.480;19.354;2023-05-10T06:01:16;99372.38;;;17.33;50.89
44697;BME280;57264;47.480;19.354;2023-05-10T06:03:42;99375.22;;;17.91;48.80
44697;BME280;57264;47.480;19.354;2023-05-10T06:06:07;99377.88;;;17.91;49.58
44697;BME280;57264;47.480;19.354;2023-05-10T06:08:33;99378.28;;;18.05;49.68
44697;BME280;57264;47.480;19.354;2023-05-10T06:11:02;99383.47;;;18.21;47.93
44697;BME280;57264;47.480;19.354;2023-05-10T06:13:29;99384.50;;;18.15;48.29
44697;BME280;57264;47.480;19.354;2023-05-10T06:15:58;99384.94;;;18.07;48.63
44697;BME280;57264;47.480;19.354;2023-05-10T06:18:24;99382.63;;;17.89;48.08
44697;BME280;57264;47.480;19.354;2023-05-10T06:20:50;99380.75;;;17.90;48.32
